createdAt,value
2023-04-07T00:00:16.199Z,6.83
2023-04-07T00:02:50.033Z,6.33
2023-04-07T00:05:23.940Z,7.13
2023-04-07T00:07:57.129Z,6.07
2023-04-07T00:10:28.751Z,7.00
2023-04-07T00:13:02.339Z,6.10
2023-04-07T00:15:33.377Z,6.70
2023-04-07T00:18:04.384Z,6.37
2023-04-07T00:20:40.106Z,6.13
2023-04-07T00:23:13.638Z,7.17
2023-04-07T00:25:46.590Z,6.40
2023-04-07T00:28:17.562Z,7.03
2023-04-07T00:30:48.676Z,6.50
2023-04-07T00:33:22.487Z,7.20
2023-04-07T00:35:58.112Z,7.23
2023-04-07T00:38:29.175Z,7.60
2023-04-07T00:41:03.762Z,6.90
2023-04-07T00:43:34.673Z,7.33
2023-04-07T00:46:06.683Z,6.70
2023-04-07T00:48:37.677Z,8.13
2023-04-07T00:51:11.293Z,7.80
2023-04-07T00:53:42.930Z,8.20
2023-04-07T00:56:13.982Z,7.60
2023-04-07T00:58:45.011Z,9.00
2023-04-07T01:01:22.002Z,7.80
2023-04-07T01:03:58.714Z,7.87
2023-04-07T01:06:37.987Z,9.20
2023-04-07T01:09:17.486Z,9.70
2023-04-07T01:12:02.585Z,8.80
2023-04-07T01:14:38.869Z,8.57
2023-04-07T01:17:13.398Z,8.60
2023-04-07T01:19:50.189Z,8.50
2023-04-07T01:22:29.600Z,9.50
2023-04-07T01:25:39.372Z,8.93
2023-04-07T01:28:25.823Z,9.70
2023-04-07T01:31:01.181Z,9.57
2023-04-07T01:33:36.700Z,9.93
2023-04-07T01:36:11.021Z,10.87
2023-04-07T01:38:43.092Z,9.27
2023-04-07T01:41:17.788Z,10.47
2023-04-07T01:43:50.234Z,10.03
2023-04-07T01:46:27.020Z,10.83
2023-04-07T01:48:59.638Z,10.47
2023-04-07T01:51:33.247Z,9.60
2023-04-07T01:54:06.033Z,10.10
2023-04-07T01:56:41.177Z,9.83
2023-04-07T01:59:12.205Z,10.70
2023-04-07T02:01:47.406Z,10.60
2023-04-07T02:04:25.759Z,10.80
2023-04-07T02:07:03.099Z,10.47
2023-04-07T02:09:36.598Z,10.93
2023-04-07T02:12:11.242Z,11.17
2023-04-07T02:14:42.733Z,11.17
2023-04-07T02:17:19.997Z,11.90
2023-04-07T02:19:52.199Z,11.90
2023-04-07T02:22:24.921Z,12.00
2023-04-07T02:24:55.991Z,12.40
2023-04-07T02:27:26.945Z,10.87
2023-04-07T02:29:57.925Z,10.90
2023-04-07T02:32:31.463Z,11.63
2023-04-07T02:35:04.967Z,11.50
2023-04-07T02:37:35.871Z,11.90
2023-04-07T02:40:07.218Z,13.47
2023-04-07T02:42:39.879Z,12.80
2023-04-07T02:45:12.360Z,12.83
2023-04-07T02:47:45.853Z,13.00
2023-04-07T02:50:16.937Z,12.13
2023-04-07T02:52:48.097Z,12.43
2023-04-07T02:55:19.183Z,11.53
2023-04-07T02:57:50.448Z,11.97
2023-04-07T03:00:21.718Z,12.03
2023-04-07T03:02:58.058Z,13.00
2023-04-07T03:05:28.995Z,12.30
2023-04-07T03:08:00.603Z,11.60
2023-04-07T03:10:31.635Z,11.87
2023-04-07T03:13:02.594Z,12.30
2023-04-07T03:15:36.725Z,11.30
2023-04-07T03:18:10.233Z,11.97
2023-04-07T03:20:42.099Z,12.00
2023-04-07T03:23:13.195Z,12.07
2023-04-07T03:25:44.593Z,12.80
2023-04-07T03:28:16.612Z,11.57
2023-04-07T03:30:48.095Z,12.70
2023-04-07T03:33:21.625Z,11.70
2023-04-07T03:35:52.682Z,12.50
2023-04-07T03:38:23.926Z,11.67
2023-04-07T03:40:54.790Z,12.30
2023-04-07T03:43:25.870Z,12.13
2023-04-07T03:45:57.597Z,11.00
2023-04-07T03:48:36.133Z,12.20
2023-04-07T03:51:10.187Z,11.20
2023-04-07T03:53:41.718Z,10.93
2023-04-07T03:56:13.127Z,12.00
2023-04-07T03:58:47.138Z,12.97
2023-04-07T04:01:18.061Z,11.87
2023-04-07T04:03:54.146Z,12.23
2023-04-07T04:06:26.599Z,11.97
2023-04-07T04:08:57.679Z,12.70
2023-04-07T04:11:28.628Z,14.20
2023-04-07T04:13:59.662Z,13.10
2023-04-07T04:16:31.911Z,13.30
2023-04-07T04:19:05.673Z,12.40
2023-04-07T04:21:36.622Z,11.70
2023-04-07T04:24:08.096Z,11.57
2023-04-07T04:26:39.115Z,11.80
2023-04-07T04:29:10.005Z,11.60
2023-04-07T04:31:43.543Z,11.10
2023-04-07T04:34:17.604Z,11.80
2023-04-07T04:36:49.396Z,11.90
2023-04-07T04:39:20.576Z,12.50
2023-04-07T04:41:52.111Z,13.40
2023-04-07T04:44:27.418Z,13.87
2023-04-07T04:46:58.384Z,13.90
2023-04-07T04:49:34.341Z,13.33
2023-04-07T04:52:05.444Z,13.87
2023-04-07T04:54:36.493Z,15.43
2023-04-07T04:57:07.504Z,15.47
2023-04-07T04:59:39.931Z,15.07
2023-04-07T05:02:11.645Z,15.07
2023-04-07T05:04:45.989Z,15.50
2023-04-07T05:07:17.137Z,16.27
2023-04-07T05:09:48.226Z,15.90
2023-04-07T05:12:19.135Z,16.47
2023-04-07T05:14:50.093Z,15.10
2023-04-07T05:17:21.236Z,15.87
2023-04-07T05:19:54.839Z,15.90
2023-04-07T05:22:25.773Z,16.63
2023-04-07T05:24:59.411Z,17.63
2023-04-07T05:27:30.383Z,16.30
2023-04-07T05:30:01.679Z,16.70
2023-04-07T05:32:32.717Z,16.93
2023-04-07T05:35:06.319Z,16.30
2023-04-07T05:37:37.294Z,17.10
2023-04-07T05:40:12.008Z,17.63
2023-04-07T05:42:42.986Z,18.60
2023-04-07T05:45:14.489Z,16.57
2023-04-07T05:47:47.481Z,19.10
2023-04-07T05:50:21.209Z,18.00
2023-04-07T05:52:53.363Z,17.43
2023-04-07T05:55:24.311Z,17.03
2023-04-07T05:57:55.177Z,16.30
2023-04-07T06:00:27.473Z,15.47
2023-04-07T06:02:58.837Z,15.13
2023-04-07T06:05:32.650Z,15.80
2023-04-07T06:08:06.299Z,14.70
2023-04-07T06:10:37.269Z,15.07
2023-04-07T06:13:11.162Z,14.00
2023-04-07T06:15:43.837Z,14.63
2023-04-07T06:18:14.707Z,15.20
2023-04-07T06:20:48.687Z,15.57
2023-04-07T06:23:19.793Z,14.40
2023-04-07T06:25:52.137Z,14.40
2023-04-07T06:28:23.699Z,12.63
2023-04-07T06:30:57.008Z,12.97
2023-04-07T06:33:28.720Z,13.13
2023-04-07T06:36:02.288Z,11.00
2023-04-07T06:38:33.768Z,11.90
2023-04-07T06:41:04.775Z,11.23
2023-04-07T06:43:35.729Z,11.57
2023-04-07T06:46:06.896Z,11.50
2023-04-07T06:48:37.942Z,10.97
2023-04-07T06:51:12.087Z,12.20
2023-04-07T06:53:44.403Z,10.83
2023-04-07T06:56:15.683Z,11.30
2023-04-07T06:58:49.362Z,11.30
2023-04-07T07:01:20.402Z,10.40
2023-04-07T07:03:52.044Z,10.50
2023-04-07T07:06:26.871Z,11.20
2023-04-07T07:08:58.112Z,10.87
2023-04-07T07:11:29.061Z,10.17
2023-04-07T07:14:00.015Z,10.20
2023-04-07T07:16:33.255Z,9.20
2023-04-07T07:19:04.300Z,9.40
2023-04-07T07:21:37.761Z,10.23
2023-04-07T07:24:09.158Z,8.80
2023-04-07T07:26:43.481Z,9.30
2023-04-07T07:29:15.274Z,8.53
2023-04-07T07:31:46.774Z,8.30
2023-04-07T07:34:20.293Z,8.77
2023-04-07T07:36:53.903Z,9.40
2023-04-07T07:39:24.824Z,10.00
2023-04-07T07:41:56.046Z,8.40
2023-04-07T07:44:27.581Z,8.60
2023-04-07T07:46:58.552Z,9.67
2023-04-07T07:49:32.048Z,8.57
2023-04-07T07:52:05.632Z,8.60
2023-04-07T07:54:36.702Z,9.20
2023-04-07T07:57:07.694Z,9.27
2023-04-07T07:59:39.006Z,8.80
2023-04-07T08:02:10.331Z,8.33
2023-04-07T08:04:41.757Z,9.97
2023-04-07T08:07:16.469Z,9.10
2023-04-07T08:09:47.683Z,9.63
2023-04-07T08:12:18.834Z,9.23
2023-04-07T08:14:50.147Z,10.33
2023-04-07T08:17:23.751Z,8.80
2023-04-07T08:19:54.885Z,9.10
2023-04-07T08:22:28.546Z,8.60
2023-04-07T08:24:59.618Z,8.67
2023-04-07T08:27:31.022Z,7.97
2023-04-07T08:30:03.696Z,8.00
2023-04-07T08:32:39.075Z,8.80
2023-04-07T08:35:10.668Z,8.63
2023-04-07T08:37:45.068Z,9.13
2023-04-07T08:40:16.390Z,9.30
2023-04-07T08:42:52.795Z,9.07
2023-04-07T08:45:25.162Z,7.37
2023-04-07T08:47:59.646Z,6.77
2023-04-07T08:50:31.042Z,7.90
2023-04-07T08:53:09.526Z,7.80
2023-04-07T08:55:43.344Z,8.80
2023-04-07T08:58:15.021Z,9.27
2023-04-07T09:00:49.461Z,7.80
2023-04-07T09:03:21.491Z,7.70
2023-04-07T09:05:54.107Z,7.47
2023-04-07T09:08:29.926Z,6.93
2023-04-07T09:11:01.941Z,7.17
2023-04-07T09:13:33.687Z,6.50
2023-04-07T09:16:05.718Z,6.23
2023-04-07T09:18:37.058Z,6.83
2023-04-07T09:21:15.768Z,7.33
2023-04-07T09:24:23.994Z,7.50
2023-04-07T09:27:16.565Z,6.83
2023-04-07T09:29:49.781Z,6.73
2023-04-07T09:32:38.814Z,8.77
2023-04-07T09:35:11.148Z,8.00
2023-04-07T09:37:42.795Z,8.23
2023-04-07T09:40:30.051Z,7.83
2023-04-07T09:43:01.327Z,8.90
2023-04-07T09:45:35.824Z,8.33
2023-04-07T09:48:20.626Z,8.10
2023-04-07T09:50:52.208Z,8.13
2023-04-07T09:53:25.837Z,7.20
2023-04-07T09:55:59.716Z,6.60
2023-04-07T09:58:33.277Z,6.90
2023-04-07T10:01:04.870Z,6.20
2023-04-07T10:03:37.284Z,5.87
2023-04-07T10:06:10.924Z,6.23
2023-04-07T10:08:43.985Z,5.37
2023-04-07T10:11:18.965Z,5.87
2023-04-07T10:13:50.236Z,4.97
2023-04-07T10:16:21.795Z,5.87
2023-04-07T10:18:53.125Z,5.70
2023-04-07T10:21:25.053Z,6.60
2023-04-07T10:24:02.789Z,6.13
2023-04-07T10:26:42.366Z,7.30
2023-04-07T10:29:17.015Z,7.47
2023-04-07T10:31:49.651Z,7.93
2023-04-07T10:34:21.115Z,8.23
2023-04-07T10:37:14.515Z,9.30
2023-04-07T10:39:45.699Z,8.40
2023-04-07T10:42:52.072Z,8.13
2023-04-07T10:45:56.653Z,8.80
2023-04-07T10:48:28.747Z,8.73
2023-04-07T10:51:18.924Z,8.40
2023-04-07T10:54:29.020Z,8.63
2023-04-07T10:57:14.645Z,8.47
2023-04-07T11:00:20.868Z,8.97
2023-04-07T11:02:52.152Z,8.40
2023-04-07T11:05:25.888Z,8.10
2023-04-07T11:08:02.903Z,7.50
2023-04-07T11:10:36.872Z,7.50
2023-04-07T11:13:10.639Z,7.37
2023-04-07T11:15:44.396Z,7.60
2023-04-07T11:18:23.619Z,8.33
2023-04-07T11:20:58.499Z,8.40
2023-04-07T11:23:42.362Z,7.00
2023-04-07T11:26:15.053Z,7.20
2023-04-07T11:28:49.207Z,6.77
2023-04-07T11:31:28.281Z,6.93
2023-04-07T11:34:01.991Z,8.07
2023-04-07T11:36:34.733Z,7.17
2023-04-07T11:39:05.984Z,8.40
2023-04-07T11:41:51.474Z,8.47
2023-04-07T11:44:27.186Z,6.73
2023-04-07T11:47:03.885Z,8.20
2023-04-07T11:49:48.942Z,8.10
2023-04-07T11:52:20.911Z,7.50
2023-04-07T11:54:52.250Z,5.43
2023-04-07T11:57:29.001Z,5.73
2023-04-07T12:00:09.225Z,5.90
2023-04-07T12:02:43.234Z,6.40
2023-04-07T12:05:14.636Z,7.00
2023-04-07T12:07:58.079Z,7.13
2023-04-07T12:10:29.680Z,7.27
2023-04-07T12:13:02.639Z,7.90
2023-04-07T12:15:36.933Z,7.40
2023-04-07T12:18:10.525Z,8.50
2023-04-07T12:20:41.717Z,9.70
2023-04-07T12:23:12.700Z,10.50
2023-04-07T12:25:44.009Z,10.10
2023-04-07T12:28:15.007Z,10.40
2023-04-07T12:30:46.356Z,9.73
2023-04-07T12:33:19.858Z,9.27
2023-04-07T12:35:51.972Z,9.50
2023-04-07T12:38:23.014Z,8.90
2023-04-07T12:40:54.614Z,8.30
2023-04-07T12:43:25.556Z,7.57
2023-04-07T12:45:58.509Z,7.80
2023-04-07T12:48:32.933Z,8.13
2023-04-07T12:51:04.446Z,7.50
2023-04-07T12:53:38.166Z,7.00
2023-04-07T12:56:10.024Z,7.10
2023-04-07T12:58:40.876Z,7.67
2023-04-07T13:01:12.047Z,7.50
2023-04-07T13:03:45.559Z,8.50
2023-04-07T13:06:17.634Z,8.80
2023-04-07T13:08:48.998Z,8.77
2023-04-07T13:11:20.157Z,9.00
2023-04-07T13:13:51.197Z,8.00
2023-04-07T13:16:25.347Z,6.90
2023-04-07T13:18:58.957Z,5.50
2023-04-07T13:24:04.941Z,5.00
2023-04-07T13:26:35.922Z,4.20
2023-04-07T13:29:07.077Z,4.40
2023-04-07T13:31:38.259Z,3.77
2023-04-07T13:34:11.807Z,3.20
2023-04-07T13:36:42.749Z,3.50
2023-04-07T13:39:14.037Z,3.83
2023-04-07T13:41:45.036Z,3.97
2023-04-07T13:44:16.016Z,4.10
2023-04-07T13:46:46.912Z,3.10
2023-04-07T13:49:20.911Z,3.67
2023-04-07T13:51:52.086Z,3.97
2023-04-07T13:54:23.072Z,3.53
2023-04-07T13:56:54.161Z,3.40
2023-04-07T13:59:25.282Z,3.67
2023-04-07T14:01:56.307Z,3.30
2023-04-07T14:04:30.106Z,3.70
2023-04-07T14:07:01.104Z,3.30
2023-04-07T14:09:32.095Z,2.70
2023-04-07T14:12:03.001Z,3.27
2023-04-07T14:14:37.654Z,3.10
2023-04-07T14:17:08.710Z,2.93
2023-04-07T14:19:45.543Z,3.60
2023-04-07T14:22:17.387Z,3.53
2023-04-07T14:24:51.577Z,3.73
2023-04-07T14:27:23.580Z,2.80
2023-04-07T14:29:58.400Z,3.03
2023-04-07T14:32:30.236Z,3.53
2023-04-07T14:35:04.148Z,4.17
2023-04-07T14:37:38.567Z,3.67
2023-04-07T14:40:11.358Z,3.20
2023-04-07T14:42:43.413Z,3.50
2023-04-07T14:45:15.596Z,3.57
2023-04-07T14:47:46.743Z,3.07
2023-04-07T14:50:20.570Z,2.97
2023-04-07T14:52:51.480Z,2.80
2023-04-07T14:55:25.223Z,3.20
2023-04-07T14:57:56.180Z,2.90
2023-04-07T15:00:28.912Z,2.97
2023-04-07T15:03:00.417Z,2.80
2023-04-07T15:05:35.418Z,2.70
2023-04-07T15:08:06.534Z,4.00
2023-04-07T15:10:38.749Z,4.70
2023-04-07T15:13:09.836Z,4.50
2023-04-07T15:15:40.906Z,4.50
2023-04-07T15:18:16.859Z,3.47
2023-04-07T15:20:50.401Z,4.20
2023-04-07T15:23:23.876Z,4.50
2023-04-07T15:25:56.373Z,3.47
2023-04-07T15:28:27.685Z,3.37
2023-04-07T15:31:19.050Z,3.17
2023-04-07T15:33:53.175Z,3.00
2023-04-07T15:36:27.561Z,3.37
2023-04-07T15:38:58.724Z,3.20
2023-04-07T15:41:31.022Z,3.33
2023-04-07T15:44:02.522Z,3.20
2023-04-07T15:46:33.685Z,3.03
2023-04-07T15:49:06.875Z,2.43
2023-04-07T15:51:40.657Z,3.20
2023-04-07T15:54:11.567Z,2.90
2023-04-07T15:56:42.829Z,2.77
2023-04-07T15:59:13.822Z,2.93
2023-04-07T16:01:45.018Z,2.90
2023-04-07T16:04:16.140Z,3.20
2023-04-07T16:06:49.958Z,2.97
2023-04-07T16:09:21.098Z,3.63
2023-04-07T16:11:55.013Z,4.17
2023-04-07T16:14:29.056Z,4.87
2023-04-07T16:17:00.968Z,4.30
2023-04-07T16:19:34.342Z,4.30
2023-04-07T16:22:07.782Z,4.13
2023-04-07T16:24:38.664Z,3.90
2023-04-07T16:27:09.558Z,3.70
2023-04-07T16:29:40.437Z,3.97
2023-04-07T16:32:11.449Z,3.47
2023-04-07T16:34:42.379Z,3.53
2023-04-07T16:37:16.306Z,6.57
2023-04-07T16:39:47.252Z,7.47
2023-04-07T16:42:18.360Z,7.40
2023-04-07T16:44:49.225Z,5.67
2023-04-07T16:47:20.534Z,6.27
2023-04-07T16:49:51.498Z,5.83
2023-04-07T16:52:25.546Z,7.20
2023-04-07T16:54:56.697Z,6.60
2023-04-07T16:57:27.897Z,5.63
2023-04-07T16:59:59.410Z,5.50
2023-04-07T17:02:31.134Z,4.77
2023-04-07T17:05:02.383Z,4.77
2023-04-07T17:07:36.181Z,5.00
2023-04-07T17:10:07.562Z,5.17
2023-04-07T17:12:38.534Z,4.97
2023-04-07T17:15:10.530Z,5.27
2023-04-07T17:17:41.501Z,5.93
2023-04-07T17:20:13.718Z,5.57
2023-04-07T17:22:50.151Z,6.10
2023-04-07T17:25:21.323Z,6.00
2023-04-07T17:27:56.886Z,5.80
2023-04-07T17:30:27.953Z,6.07
2023-04-07T17:33:01.693Z,5.97
2023-04-07T17:35:36.265Z,7.30
2023-04-07T17:38:09.857Z,5.37
2023-04-07T17:40:41.005Z,5.40
2023-04-07T17:43:12.305Z,5.17
2023-04-07T17:45:43.337Z,4.27
2023-04-07T17:48:14.364Z,5.60
2023-04-07T17:50:45.947Z,8.40
2023-04-07T17:53:22.277Z,8.30
2023-04-07T17:55:53.372Z,7.60
2023-04-07T17:58:25.004Z,7.60
2023-04-07T18:00:55.942Z,8.10
2023-04-07T18:03:27.135Z,8.50
2023-04-07T18:05:58.133Z,8.73
2023-04-07T18:08:32.445Z,9.20
2023-04-07T18:11:05.896Z,8.70
2023-04-07T18:13:38.151Z,9.50
2023-04-07T18:16:12.034Z,9.20
2023-04-07T18:18:42.948Z,10.37
2023-04-07T18:21:13.884Z,11.03
2023-04-07T18:23:47.554Z,10.87
2023-04-07T18:26:18.588Z,10.50
2023-04-07T18:28:49.612Z,11.53
2023-04-07T18:31:20.825Z,12.27
2023-04-07T18:33:51.908Z,12.40
2023-04-07T18:36:25.689Z,10.50
2023-04-07T18:38:59.216Z,11.07
2023-04-07T18:41:30.246Z,12.40
2023-04-07T18:44:01.419Z,12.20
2023-04-07T18:46:32.541Z,12.20
2023-04-07T18:49:03.697Z,11.60
2023-04-07T18:51:34.808Z,11.00
2023-04-07T18:54:08.385Z,11.00
2023-04-07T18:56:39.949Z,11.17
2023-04-07T18:59:11.011Z,11.10
2023-04-07T19:01:42.655Z,12.47
2023-04-07T19:04:15.200Z,14.50
2023-04-07T19:06:46.150Z,12.90
2023-04-07T19:09:19.613Z,12.60
2023-04-07T19:11:51.821Z,12.20
2023-04-07T19:14:22.786Z,13.90
2023-04-07T19:16:55.092Z,15.40
2023-04-07T19:19:27.952Z,15.00
2023-04-07T19:22:02.026Z,18.17
2023-04-07T19:24:36.241Z,17.20
2023-04-07T19:27:07.322Z,18.70
2023-04-07T19:29:38.275Z,16.70
2023-04-07T19:32:10.037Z,15.80
2023-04-07T19:34:41.078Z,16.73
2023-04-07T19:37:13.532Z,15.47
2023-04-07T19:40:01.829Z,14.77
2023-04-07T19:42:38.155Z,16.80
2023-04-07T19:45:10.324Z,16.40
2023-04-07T19:47:41.619Z,18.37
2023-04-07T19:50:14.460Z,19.67
2023-04-07T19:52:45.932Z,19.37
2023-04-07T19:55:19.717Z,19.07
2023-04-07T19:57:50.637Z,17.53
2023-04-07T20:00:21.753Z,17.10
2023-04-07T20:02:52.984Z,19.07
2023-04-07T20:05:24.483Z,20.47
2023-04-07T20:07:55.516Z,19.70
2023-04-07T20:10:29.628Z,18.30
2023-04-07T20:13:00.467Z,18.67
2023-04-07T20:15:31.488Z,18.60
2023-04-07T20:18:04.812Z,18.90
2023-04-07T20:20:39.502Z,18.43
2023-04-07T20:23:12.555Z,21.30
2023-04-07T20:25:46.422Z,20.63
2023-04-07T20:28:17.369Z,18.80
2023-04-07T20:30:48.621Z,19.83
2023-04-07T20:33:19.962Z,19.33
2023-04-07T20:35:51.057Z,20.20
2023-04-07T20:38:22.240Z,21.50
2023-04-07T20:40:55.951Z,20.67
2023-04-07T20:43:26.861Z,20.17
2023-04-07T20:45:58.413Z,19.20
2023-04-07T20:48:29.381Z,19.80
2023-04-07T20:51:00.302Z,22.13
2023-04-07T20:53:31.901Z,24.40
2023-04-07T20:56:05.816Z,21.80
2023-04-07T20:58:37.322Z,20.43
2023-04-07T21:01:08.418Z,23.20
2023-04-07T21:03:39.546Z,23.20
2023-04-07T21:06:11.476Z,22.00
2023-04-07T21:08:44.924Z,22.50
2023-04-07T21:11:18.487Z,24.40
2023-04-07T21:13:49.357Z,26.63
2023-04-07T21:16:20.292Z,25.70
2023-04-07T21:18:51.566Z,23.67
2023-04-07T21:21:22.507Z,23.20
2023-04-07T21:23:56.365Z,25.00
2023-04-07T21:26:29.902Z,24.70
2023-04-07T21:29:00.824Z,24.50
2023-04-07T21:31:34.041Z,26.20
2023-04-07T21:34:04.968Z,25.33
2023-04-07T21:36:36.149Z,22.37
2023-04-07T21:39:07.367Z,23.63
2023-04-07T21:41:40.968Z,22.17
2023-04-07T21:44:13.140Z,23.30
2023-04-07T21:46:44.125Z,22.17
2023-04-07T21:49:22.069Z,21.60
2023-04-07T21:51:53.025Z,22.53
2023-04-07T21:54:25.127Z,20.57
2023-04-07T21:56:58.974Z,21.30
2023-04-07T21:59:32.655Z,22.33
2023-04-07T22:02:03.850Z,23.77
2023-04-07T22:04:38.474Z,20.80
2023-04-07T22:07:09.394Z,22.80
2023-04-07T22:09:40.622Z,23.80
2023-04-07T22:12:14.092Z,20.90
2023-04-07T22:14:45.387Z,21.67
2023-04-07T22:17:16.383Z,22.30
2023-04-07T22:19:47.290Z,22.00
2023-04-07T22:22:18.201Z,23.00
2023-04-07T22:24:49.149Z,22.00
2023-04-07T22:27:22.994Z,23.10
2023-04-07T22:29:53.875Z,20.97
2023-04-07T22:32:24.806Z,23.53
2023-04-07T22:34:55.760Z,28.10
2023-04-07T22:37:27.312Z,27.27
2023-04-07T22:39:58.244Z,25.50
2023-04-07T22:42:31.708Z,29.30
2023-04-07T22:45:02.627Z,31.00
2023-04-07T22:47:33.534Z,30.10
2023-04-07T22:50:04.747Z,27.80
2023-04-07T22:52:35.760Z,27.37
2023-04-07T22:55:07.189Z,26.97
2023-04-07T22:57:40.640Z,27.30
2023-04-07T23:00:14.005Z,26.60
2023-04-07T23:02:45.116Z,24.70
2023-04-07T23:05:16.432Z,22.97
2023-04-07T23:07:50.430Z,24.87
2023-04-07T23:10:21.469Z,22.87
2023-04-07T23:12:55.534Z,24.23
2023-04-07T23:15:27.384Z,21.73
2023-04-07T23:17:58.332Z,24.43
2023-04-07T23:20:29.398Z,24.17
2023-04-07T23:23:00.457Z,23.80
2023-04-07T23:25:32.887Z,25.17
2023-04-07T23:28:06.332Z,26.00
2023-04-07T23:30:37.515Z,24.10
2023-04-07T23:33:08.500Z,25.70
2023-04-07T23:35:39.421Z,26.33
2023-04-07T23:38:11.086Z,23.23
2023-04-07T23:40:42.078Z,25.60
2023-04-07T23:43:15.489Z,26.47
2023-04-07T23:45:49.120Z,28.07
2023-04-07T23:48:19.978Z,26.50
2023-04-07T23:50:52.579Z,27.07
2023-04-07T23:53:23.470Z,23.77
2023-04-07T23:55:54.533Z,25.63
2023-04-07T23:58:27.972Z,26.03
